Terminal Aerodrome Forecast
Issued by NWS

Home | Current Version | Previous Version | Text Only | Print | Product List | Glossary On
Versions: 1 2 3 4 5 6 7 8 9 10 11 12 13 14 15 16 17 18
710
FTUS43 KGRR 101920 AAA
TAFBTL
TAF AMD
KBTL 101920Z 1019/1118 31014G24KT P6SM -SHSN SCT025 BKN050
      TEMPO 1019/1022 3SM -SHSN OVC025
     FM102200 32010G18KT P6SM -SHSN SCT025 BKN035
      TEMPO 1022/1024 4SM -SHSN OVC025
     FM110000 33008KT P6SM BKN035
     FM111500 30008KT 3SM -SHSN OVC025=

USA.gov is the U.S. government's official web portal to all federal, state and local government web resources and services.